Terminal Aerodrome Forecast
Issued by NWS Topeka, KS

Home | Current Version | Previous Version | Graphics & Text | Print | Product List | Glossary On
Versions: 1 2 3 4 5 6 7 8 9 10 11 12 13 14 15 16 17 18 19 20 21 22 23 24 25 26 27 28
423
FTUS43 KTOP 211513 AAC
TAFTOP
TAF AMD
KTOP 211513Z 2115/2212 20004KT 1/2SM FG VV002
     FM211600 20005KT P6SM FEW005
     FM212300 08004KT P6SM BKN040
     FM220500 01006KT 4SM BR OVC020=

USA.gov is the U.S. government's official web portal to all federal, state and local government web resources and services.